Hozan Maru — JL6681 — position and weather

sailwx.info

Track history (hours):
 
Tides and Currents Weather Stations Pressure Air Temp Water Temp Dewpoint Dewpoint Depression Visibility Wind Speed Wind Dir Waves Ship Positions

Hozan Maru

Last reported at 2018-Jun-24 13:21 UTC. Time now 2018-Jun-24 14:24 UTC.
Position N 34°42' E 134°47'.

Length 70 m; draft 4.8 m.

Type: Tanker. MMSI: 431501711.

Date/timePositionNaut miles runAvg speedWind from/ knotsBaromVisibWave heightAir tempDewpointWater temp
2018-Jun-24 13:21N 34°42' E 134°47'611.3
2018-Jun-24 12:49N 34°38' E 134°52'311.2
2018-Jun-24 12:30N 34°37' E 134°56'612.2
2018-Jun-24 12:00N 34°36' E 135°03'511.1
2018-Jun-24 11:30N 34°30' E 135°04'613.0
2018-Jun-24 11:01N 34°24' E 135°02'713.8
2018-Jun-24 10:31N 34°18' E 134°59'612.7
2018-Jun-24 10:01N 34°12' E 135°03'612.2
2018-Jun-24 09:30N 34°07' E 135°08'0 0.1
2018-Jun-24 05:47N 34°07' E 135°07'1 4.0
2018-Jun-24 05:30N 34°08' E 135°07'612.7
2018-Jun-24 05:01N 34°14' E 135°04'612.2
2018-Jun-24 04:31N 34°20' E 135°04'713.4
2018-Jun-24 04:00N 34°27' E 135°03'713.8
2018-Jun-24 03:30N 34°33' E 135°03'712.3
2018-Jun-24 02:56N 34°36' E 134°55'715.5
2018-Jun-24 02:30N 34°40' E 134°49'3 0.2
2018-Jun-23 07:38N 34°43' E 134°47'212.5
2018-Jun-23 07:27N 34°41' E 134°48'613.2
2018-Jun-23 06:59N 34°37' E 134°55'613.5
2018-Jun-23 06:30N 34°37' E 135°02'510.0
2018-Jun-23 06:00N 34°32' E 135°04'612.2
2018-Jun-23 05:30N 34°26' E 135°02'611.9
2018-Jun-23 05:00N 34°20' E 135°00'510.9
2018-Jun-23 04:30N 34°15' E 135°01'612.1
2018-Jun-23 04:00N 34°10' E 135°05'3 1.1
2018-Jun-23 01:05N 34°07' E 135°07'0 0.1
2018-Jun-23 01:00N 34°07' E 135°07'1 1.4
2018-Jun-23 00:30N 34°08' E 135°07'0 0.9
2018-Jun-23 00:00N 34°08' E 135°07'510.0
2018-Jun-22 23:30N 34°13' E 135°08'0 0.8
2018-Jun-22 22:59N 34°13' E 135°09'0 0.0
2018-Jun-22 22:30N 34°13' E 135°09'0 0.0
2018-Jun-22 22:00N 34°13' E 135°09'0 0.0
2018-Jun-22 21:30N 34°13' E 135°09'0 0.0
2018-Jun-22 21:00N 34°13' E 135°09'0 0.0
2018-Jun-22 20:30N 34°13' E 135°09'0 0.0
2018-Jun-22 20:00N 34°13' E 135°09'0 0.0
2018-Jun-22 19:30N 34°13' E 135°09'0 0.0
2018-Jun-22 19:00N 34°13' E 135°09'0 0.0
2018-Jun-22 18:30N 34°13' E 135°09'0 0.0
2018-Jun-22 18:00N 34°13' E 135°09'0 0.0
2018-Jun-22 17:30N 34°13' E 135°09'0 0.0
2018-Jun-22 17:00N 34°13' E 135°09'0 0.0
2018-Jun-22 16:30N 34°13' E 135°09'0 0.0
2018-Jun-22 16:00N 34°13' E 135°09'0 0.0
2018-Jun-22 15:30N 34°13' E 135°09'0 0.0
2018-Jun-22 15:00N 34°13' E 135°09'0 0.0
2018-Jun-22 14:30N 34°13' E 135°09'0 0.0
2018-Jun-22 14:00N 34°13' E 135°09'0 0.0
2018-Jun-22 13:30N 34°13' E 135°09'0 0.0
2018-Jun-22 13:00N 34°13' E 135°09'0 0.0
2018-Jun-22 12:30N 34°13' E 135°09'0 0.0
2018-Jun-22 12:00N 34°13' E 135°09'0 0.0
2018-Jun-22 11:30N 34°13' E 135°09'0 0.0
2018-Jun-22 11:00N 34°13' E 135°09'0 0.0
2018-Jun-22 10:30N 34°13' E 135°09'0 0.0
2018-Jun-22 10:00N 34°13' E 135°09'0 0.0
2018-Jun-22 09:30N 34°13' E 135°09'0 0.0
2018-Jun-22 09:00N 34°13' E 135°09'0 0.0
2018-Jun-22 08:30N 34°13' E 135°09'0 0.0
2018-Jun-22 08:00N 34°13' E 135°09'0 0.0
2018-Jun-22 07:30N 34°13' E 135°09'0 0.0
2018-Jun-22 07:00N 34°13' E 135°09'0 0.0
2018-Jun-22 06:30N 34°13' E 135°09'0 0.0
2018-Jun-22 06:00N 34°13' E 135°09'0 0.0
2018-Jun-22 05:30N 34°13' E 135°09'2 4.2
2018-Jun-22 05:00N 34°14' E 135°06'510.1
2018-Jun-22 04:30N 34°18' E 135°04'612.6
2018-Jun-22 04:00N 34°25' E 135°03'713.4
2018-Jun-22 03:30N 34°31' E 135°03'910.6
2018-Jun-22 02:40N 34°37' E 134°55'514.5
2018-Jun-22 02:21N 34°39' E 134°50'4 0.3
2018-Jun-21 12:25N 34°42' E 134°47'710.5
2018-Jun-21 11:46N 34°38' E 134°54'310.2
2018-Jun-21 11:28N 34°37' E 134°57'510.0
2018-Jun-21 11:00N 34°37' E 135°03'510.7
2018-Jun-21 10:30N 34°36' E 135°09'611.6
2018-Jun-21 10:00N 34°36' E 135°16'611.6
2018-Jun-21 09:30N 34°34' E 135°23'2 0.5
2018-Jun-21 04:42N 34°33' E 135°26'0 0.8
2018-Jun-21 04:30N 34°33' E 135°26'611.6
2018-Jun-21 04:00N 34°34' E 135°19'713.4
2018-Jun-21 03:30N 34°34' E 135°11'714.2
2018-Jun-21 03:00N 34°36' E 135°02'713.0
2018-Jun-21 02:30N 34°37' E 134°54'9 0.6
2018-Jun-20 11:55N 34°43' E 134°46'810.7
2018-Jun-20 11:12N 34°38' E 134°53'2 9.7
2018-Jun-20 10:57N 34°38' E 134°56'5 9.7
2018-Jun-20 10:28N 34°37' E 135°02'5 9.5
2018-Jun-20 09:58N 34°36' E 135°07'511.3
2018-Jun-20 09:30N 34°36' E 135°14'611.6
2018-Jun-20 09:00N 34°36' E 135°21'4 8.9
2018-Jun-20 08:31N 34°34' E 135°26'0 0.0
2018-Jun-20 06:32N 34°34' E 135°26'0 0.0
2018-Jun-20 04:20N 34°34' E 135°26'0 0.0
2018-Jun-20 04:00N 34°34' E 135°26'3 5.1
2018-Jun-20 03:28N 34°36' E 135°23'0 0.2
2018-Jun-20 02:57N 34°36' E 135°23'0 0.0
2018-Jun-20 02:19N 34°36' E 135°23'0 0.0
2018-Jun-20 02:00N 34°36' E 135°23'0 0.0
2018-Jun-20 01:17N 34°36' E 135°23'0 0.0
2018-Jun-20 00:53N 34°36' E 135°23'0 0.0
2018-Jun-20 00:25N 34°36' E 135°23'0 0.0
2018-Jun-19 23:59N 34°36' E 135°23'0 0.1
2018-Jun-19 23:30N 34°36' E 135°23'0 0.1
2018-Jun-19 22:58N 34°36' E 135°23'0 0.0
2018-Jun-19 22:30N 34°36' E 135°23'0 0.0
2018-Jun-19 22:00N 34°36' E 135°23'0 0.0
2018-Jun-19 21:30N 34°36' E 135°23'0 0.0
2018-Jun-19 20:58N 34°36' E 135°23'0 0.0
2018-Jun-19 20:30N 34°36' E 135°23'0 0.0
2018-Jun-19 20:00N 34°36' E 135°23'0 0.0
2018-Jun-19 19:30N 34°36' E 135°23'0 0.0
2018-Jun-19 19:00N 34°36' E 135°23'0 0.0
2018-Jun-19 18:30N 34°36' E 135°23'0 0.0
2018-Jun-19 18:00N 34°36' E 135°23'0 0.0
2018-Jun-19 17:30N 34°36' E 135°23'0 0.0
2018-Jun-19 17:00N 34°36' E 135°23'0 0.0
2018-Jun-19 16:30N 34°36' E 135°23'0 0.0
2018-Jun-19 16:00N 34°36' E 135°23'0 0.0
2018-Jun-19 15:30N 34°36' E 135°23'0 0.0
2018-Jun-19 15:00N 34°36' E 135°23'0 0.0
2018-Jun-19 14:30N 34°36' E 135°23'0 0.0
2018-Jun-19 14:00N 34°36' E 135°23'0 0.0
2018-Jun-19 13:29N 34°36' E 135°23'0 0.0
2018-Jun-19 13:00N 34°36' E 135°23'0 0.0
2018-Jun-19 12:30N 34°36' E 135°23'0 0.0
2018-Jun-19 12:00N 34°36' E 135°23'0 0.0
2018-Jun-19 11:30N 34°36' E 135°23'0 0.0
2018-Jun-19 11:00N 34°36' E 135°23'0 0.0
2018-Jun-19 10:30N 34°36' E 135°23'0 0.0
2018-Jun-19 10:00N 34°36' E 135°23'0 0.1
2018-Jun-19 09:30N 34°36' E 135°23'0 0.0
2018-Jun-19 09:00N 34°36' E 135°23'0 0.0
2018-Jun-19 08:30N 34°36' E 135°23'0 0.0
2018-Jun-19 08:00N 34°36' E 135°23'0 0.0
2018-Jun-19 07:30N 34°36' E 135°23'0 0.0
2018-Jun-19 07:00N 34°36' E 135°23'0 0.0
2018-Jun-19 06:29N 34°36' E 135°23'0 0.0
2018-Jun-19 06:00N 34°36' E 135°23'2 4.5
2018-Jun-19 05:30N 34°35' E 135°20'612.8
2018-Jun-19 05:00N 34°35' E 135°13'612.5
2018-Jun-19 04:29N 34°35' E 135°05'17 1.0
2018-Jun-18 11:46N 34°43' E 134°47'712.1
2018-Jun-18 11:09N 34°38' E 134°54'212.4
2018-Jun-18 11:00N 34°38' E 134°56'511.0
2018-Jun-18 10:30N 34°37' E 135°02'611.3
2018-Jun-18 10:00N 34°36' E 135°09'612.2
2018-Jun-18 09:30N 34°35' E 135°17'712.2
2018-Jun-18 08:58N 34°33' E 135°24'1 0.3
2018-Jun-18 05:06N 34°33' E 135°26'0 0.5
2018-Jun-18 05:00N 34°33' E 135°26'510.7
2018-Jun-18 04:30N 34°33' E 135°19'612.6
2018-Jun-18 04:00N 34°34' E 135°12'612.5
2018-Jun-18 03:30N 34°35' E 135°04'710.7
2018-Jun-18 02:49N 34°36' E 134°56'611.5
2018-Jun-18 02:16N 34°40' E 134°49'2 0.2
2018-Jun-17 11:54N 34°42' E 134°47'813.0
2018-Jun-17 11:18N 34°37' E 134°55'413.1
2018-Jun-17 10:58N 34°38' E 135°00'510.8
2018-Jun-17 10:31N 34°35' E 135°05'712.8
2018-Jun-17 10:00N 34°29' E 135°03'612.4
2018-Jun-17 09:31N 34°23' E 135°02'611.9
2018-Jun-17 09:01N 34°17' E 134°60'611.9
2018-Jun-17 08:31N 34°12' E 135°03'611.5
2018-Jun-17 08:00N 34°07' E 135°07'0 0.9
2018-Jun-17 07:30N 34°07' E 135°07'0 0.0
2018-Jun-17 04:16N 34°07' E 135°07'1 3.0
2018-Jun-17 04:01N 34°08' E 135°07'0 0.1
2018-Jun-17 03:30N 34°08' E 135°07'0 0.0
2018-Jun-17 03:00N 34°08' E 135°07'0 0.1
2018-Jun-17 02:30N 34°08' E 135°07'0 0.1
2018-Jun-17 02:00N 34°08' E 135°07'0 0.0
2018-Jun-17 01:30N 34°08' E 135°07'0 0.0
2018-Jun-17 01:00N 34°08' E 135°07'0 0.0
2018-Jun-17 00:30N 34°08' E 135°07'0 0.0
2018-Jun-17 00:00N 34°08' E 135°07'2 2.8
2018-Jun-16 23:29N 34°09' E 135°07'4 7.9
2018-Jun-16 23:00N 34°13' E 135°09'0 0.0
2018-Jun-16 22:16N 34°13' E 135°09'0 0.0
2018-Jun-16 21:58N 34°13' E 135°09'0 0.0
2018-Jun-16 21:28N 34°13' E 135°09'0 0.0
2018-Jun-16 20:58N 34°13' E 135°09'0 0.0
2018-Jun-16 20:28N 34°13' E 135°09'0 0.0
2018-Jun-16 19:46N 34°13' E 135°09'0 0.0
2018-Jun-16 19:28N 34°13' E 135°09'0 0.0
2018-Jun-16 18:58N 34°13' E 135°09'0 0.0
2018-Jun-16 18:22N 34°13' E 135°09'0 0.0
2018-Jun-16 17:52N 34°13' E 135°09'0 0.0
2018-Jun-16 17:28N 34°13' E 135°09'0 0.0
2018-Jun-16 16:04N 34°13' E 135°09'0 0.0
2018-Jun-16 15:58N 34°13' E 135°09'0 0.0
2018-Jun-16 15:22N 34°13' E 135°09'0 0.0
2018-Jun-16 14:58N 34°13' E 135°09'0 0.0
2018-Jun-16 14:28N 34°13' E 135°09'0 0.0
2018-Jun-16 13:58N 34°13' E 135°09'0 0.0
2018-Jun-16 12:58N 34°13' E 135°09'0 0.0
2018-Jun-16 12:16N 34°13' E 135°09'0 0.0
2018-Jun-16 11:40N 34°13' E 135°09'0 0.0
2018-Jun-16 11:04N 34°13' E 135°09'0 0.0
2018-Jun-16 02:34N 34°13' E 135°09'0 0.0
2018-Jun-16 02:10N 34°13' E 135°09'0 0.0
2018-Jun-16 00:46N 34°13' E 135°09'0 0.0
2018-Jun-16 00:22N 34°13' E 135°09'0 0.0
2018-Jun-15 23:58N 34°13' E 135°09'0 0.0
2018-Jun-15 23:22N 34°13' E 135°09'0 0.0
2018-Jun-15 22:56N 34°13' E 135°09'1 2.6
2018-Jun-15 22:30N 34°12' E 135°07'0 0.1
2018-Jun-15 21:58N 34°12' E 135°07'0 0.0
2018-Jun-15 21:28N 34°12' E 135°07'0 0.1
2018-Jun-15 20:58N 34°12' E 135°07'0 0.0
2018-Jun-15 20:28N 34°12' E 135°07'0 0.0
2018-Jun-15 19:58N 34°12' E 135°07'0 0.1
2018-Jun-15 19:28N 34°12' E 135°07'0 0.0
2018-Jun-15 18:58N 34°12' E 135°07'0 0.0
2018-Jun-15 18:28N 34°12' E 135°07'0 0.0
2018-Jun-15 17:58N 34°12' E 135°07'0 0.0
2018-Jun-15 17:28N 34°12' E 135°07'4 7.6
2018-Jun-15 17:00N 34°09' E 135°05'612.2
2018-Jun-15 16:30N 34°03' E 135°03'612.8
2018-Jun-15 16:00N 33°57' E 135°01'611.5
2018-Jun-15 15:29N 33°51' E 135°03'  
Track history (hours):
 
Tides and Currents Weather Stations Pressure Air Temp Water Temp Dewpoint Dewpoint Depression Visibility Wind Speed Wind Dir Waves Ship Positions

Hozan Maru

Last reported at 2018-Jun-24 13:21 UTC. Time now 2018-Jun-24 14:24 UTC.
Position N 34°42' E 134°47'.

Length 70 m; draft 4.8 m.

Type: Tanker. MMSI: 431501711.

Date/timePositionNaut miles runAvg speedWind from/ knotsBaromVisibWave heightAir tempDewpointWater temp
2018-Jun-24 13:21N 34°42' E 134°47'611.3
2018-Jun-24 12:49N 34°38' E 134°52'311.2
2018-Jun-24 12:30N 34°37' E 134°56'612.2
2018-Jun-24 12:00N 34°36' E 135°03'511.1
2018-Jun-24 11:30N 34°30' E 135°04'613.0
2018-Jun-24 11:01N 34°24' E 135°02'713.8
2018-Jun-24 10:31N 34°18' E 134°59'612.7
2018-Jun-24 10:01N 34°12' E 135°03'612.2
2018-Jun-24 09:30N 34°07' E 135°08'0 0.1
2018-Jun-24 05:47N 34°07' E 135°07'1 4.0
2018-Jun-24 05:30N 34°08' E 135°07'612.7
2018-Jun-24 05:01N 34°14' E 135°04'612.2
2018-Jun-24 04:31N 34°20' E 135°04'713.4
2018-Jun-24 04:00N 34°27' E 135°03'713.8
2018-Jun-24 03:30N 34°33' E 135°03'712.3
2018-Jun-24 02:56N 34°36' E 134°55'715.5
2018-Jun-24 02:30N 34°40' E 134°49'3 0.2
2018-Jun-23 07:38N 34°43' E 134°47'212.5
2018-Jun-23 07:27N 34°41' E 134°48'613.2
2018-Jun-23 06:59N 34°37' E 134°55'613.5
2018-Jun-23 06:30N 34°37' E 135°02'510.0
2018-Jun-23 06:00N 34°32' E 135°04'612.2
2018-Jun-23 05:30N 34°26' E 135°02'611.9
2018-Jun-23 05:00N 34°20' E 135°00'510.9
2018-Jun-23 04:30N 34°15' E 135°01'612.1
2018-Jun-23 04:00N 34°10' E 135°05'3 1.1
2018-Jun-23 01:05N 34°07' E 135°07'0 0.1
2018-Jun-23 01:00N 34°07' E 135°07'1 1.4
2018-Jun-23 00:30N 34°08' E 135°07'0 0.9
2018-Jun-23 00:00N 34°08' E 135°07'510.0
2018-Jun-22 23:30N 34°13' E 135°08'0 0.8
2018-Jun-22 22:59N 34°13' E 135°09'0 0.0
2018-Jun-22 22:30N 34°13' E 135°09'0 0.0
2018-Jun-22 22:00N 34°13' E 135°09'0 0.0
2018-Jun-22 21:30N 34°13' E 135°09'0 0.0
2018-Jun-22 21:00N 34°13' E 135°09'0 0.0
2018-Jun-22 20:30N 34°13' E 135°09'0 0.0
2018-Jun-22 20:00N 34°13' E 135°09'0 0.0
2018-Jun-22 19:30N 34°13' E 135°09'0 0.0
2018-Jun-22 19:00N 34°13' E 135°09'0 0.0
2018-Jun-22 18:30N 34°13' E 135°09'0 0.0
2018-Jun-22 18:00N 34°13' E 135°09'0 0.0
2018-Jun-22 17:30N 34°13' E 135°09'0 0.0
2018-Jun-22 17:00N 34°13' E 135°09'0 0.0
2018-Jun-22 16:30N 34°13' E 135°09'0 0.0
2018-Jun-22 16:00N 34°13' E 135°09'0 0.0
2018-Jun-22 15:30N 34°13' E 135°09'0 0.0
2018-Jun-22 15:00N 34°13' E 135°09'0 0.0
2018-Jun-22 14:30N 34°13' E 135°09'0 0.0
2018-Jun-22 14:00N 34°13' E 135°09'0 0.0
2018-Jun-22 13:30N 34°13' E 135°09'0 0.0
2018-Jun-22 13:00N 34°13' E 135°09'0 0.0
2018-Jun-22 12:30N 34°13' E 135°09'0 0.0
2018-Jun-22 12:00N 34°13' E 135°09'0 0.0
2018-Jun-22 11:30N 34°13' E 135°09'0 0.0
2018-Jun-22 11:00N 34°13' E 135°09'0 0.0
2018-Jun-22 10:30N 34°13' E 135°09'0 0.0
2018-Jun-22 10:00N 34°13' E 135°09'0 0.0
2018-Jun-22 09:30N 34°13' E 135°09'0 0.0
2018-Jun-22 09:00N 34°13' E 135°09'0 0.0
2018-Jun-22 08:30N 34°13' E 135°09'0 0.0
2018-Jun-22 08:00N 34°13' E 135°09'0 0.0
2018-Jun-22 07:30N 34°13' E 135°09'0 0.0
2018-Jun-22 07:00N 34°13' E 135°09'0 0.0
2018-Jun-22 06:30N 34°13' E 135°09'0 0.0
2018-Jun-22 06:00N 34°13' E 135°09'0 0.0
2018-Jun-22 05:30N 34°13' E 135°09'2 4.2
2018-Jun-22 05:00N 34°14' E 135°06'510.1
2018-Jun-22 04:30N 34°18' E 135°04'612.6
2018-Jun-22 04:00N 34°25' E 135°03'713.4
2018-Jun-22 03:30N 34°31' E 135°03'910.6
2018-Jun-22 02:40N 34°37' E 134°55'514.5
2018-Jun-22 02:21N 34°39' E 134°50'4 0.3
2018-Jun-21 12:25N 34°42' E 134°47'710.5
2018-Jun-21 11:46N 34°38' E 134°54'310.2
2018-Jun-21 11:28N 34°37' E 134°57'510.0
2018-Jun-21 11:00N 34°37' E 135°03'510.7
2018-Jun-21 10:30N 34°36' E 135°09'611.6
2018-Jun-21 10:00N 34°36' E 135°16'611.6
2018-Jun-21 09:30N 34°34' E 135°23'2 0.5
2018-Jun-21 04:42N 34°33' E 135°26'0 0.8
2018-Jun-21 04:30N 34°33' E 135°26'611.6
2018-Jun-21 04:00N 34°34' E 135°19'713.4
2018-Jun-21 03:30N 34°34' E 135°11'714.2
2018-Jun-21 03:00N 34°36' E 135°02'713.0
2018-Jun-21 02:30N 34°37' E 134°54'9 0.6
2018-Jun-20 11:55N 34°43' E 134°46'810.7
2018-Jun-20 11:12N 34°38' E 134°53'2 9.7
2018-Jun-20 10:57N 34°38' E 134°56'5 9.7
2018-Jun-20 10:28N 34°37' E 135°02'5 9.5
2018-Jun-20 09:58N 34°36' E 135°07'511.3
2018-Jun-20 09:30N 34°36' E 135°14'611.6
2018-Jun-20 09:00N 34°36' E 135°21'4 8.9
2018-Jun-20 08:31N 34°34' E 135°26'0 0.0
2018-Jun-20 06:32N 34°34' E 135°26'0 0.0
2018-Jun-20 04:20N 34°34' E 135°26'0 0.0
2018-Jun-20 04:00N 34°34' E 135°26'3 5.1
2018-Jun-20 03:28N 34°36' E 135°23'0 0.2
2018-Jun-20 02:57N 34°36' E 135°23'0 0.0
2018-Jun-20 02:19N 34°36' E 135°23'0 0.0
2018-Jun-20 02:00N 34°36' E 135°23'0 0.0
2018-Jun-20 01:17N 34°36' E 135°23'0 0.0
2018-Jun-20 00:53N 34°36' E 135°23'0 0.0
2018-Jun-20 00:25N 34°36' E 135°23'0 0.0
2018-Jun-19 23:59N 34°36' E 135°23'0 0.1
2018-Jun-19 23:30N 34°36' E 135°23'0 0.1
2018-Jun-19 22:58N 34°36' E 135°23'0 0.0
2018-Jun-19 22:30N 34°36' E 135°23'0 0.0
2018-Jun-19 22:00N 34°36' E 135°23'0 0.0
2018-Jun-19 21:30N 34°36' E 135°23'0 0.0
2018-Jun-19 20:58N 34°36' E 135°23'0 0.0
2018-Jun-19 20:30N 34°36' E 135°23'0 0.0
2018-Jun-19 20:00N 34°36' E 135°23'0 0.0
2018-Jun-19 19:30N 34°36' E 135°23'0 0.0
2018-Jun-19 19:00N 34°36' E 135°23'0 0.0
2018-Jun-19 18:30N 34°36' E 135°23'0 0.0
2018-Jun-19 18:00N 34°36' E 135°23'0 0.0
2018-Jun-19 17:30N 34°36' E 135°23'0 0.0
2018-Jun-19 17:00N 34°36' E 135°23'0 0.0
2018-Jun-19 16:30N 34°36' E 135°23'0 0.0
2018-Jun-19 16:00N 34°36' E 135°23'0 0.0
2018-Jun-19 15:30N 34°36' E 135°23'0 0.0
2018-Jun-19 15:00N 34°36' E 135°23'0 0.0
2018-Jun-19 14:30N 34°36' E 135°23'0 0.0
2018-Jun-19 14:00N 34°36' E 135°23'0 0.0
2018-Jun-19 13:29N 34°36' E 135°23'0 0.0
2018-Jun-19 13:00N 34°36' E 135°23'0 0.0
2018-Jun-19 12:30N 34°36' E 135°23'0 0.0
2018-Jun-19 12:00N 34°36' E 135°23'0 0.0
2018-Jun-19 11:30N 34°36' E 135°23'0 0.0
2018-Jun-19 11:00N 34°36' E 135°23'0 0.0
2018-Jun-19 10:30N 34°36' E 135°23'0 0.0
2018-Jun-19 10:00N 34°36' E 135°23'0 0.1
2018-Jun-19 09:30N 34°36' E 135°23'0 0.0
2018-Jun-19 09:00N 34°36' E 135°23'0 0.0
2018-Jun-19 08:30N 34°36' E 135°23'0 0.0
2018-Jun-19 08:00N 34°36' E 135°23'0 0.0
2018-Jun-19 07:30N 34°36' E 135°23'0 0.0
2018-Jun-19 07:00N 34°36' E 135°23'0 0.0
2018-Jun-19 06:29N 34°36' E 135°23'0 0.0
2018-Jun-19 06:00N 34°36' E 135°23'2 4.5
2018-Jun-19 05:30N 34°35' E 135°20'612.8
2018-Jun-19 05:00N 34°35' E 135°13'612.5
2018-Jun-19 04:29N 34°35' E 135°05'17 1.0
2018-Jun-18 11:46N 34°43' E 134°47'712.1
2018-Jun-18 11:09N 34°38' E 134°54'212.4
2018-Jun-18 11:00N 34°38' E 134°56'511.0
2018-Jun-18 10:30N 34°37' E 135°02'611.3
2018-Jun-18 10:00N 34°36' E 135°09'612.2
2018-Jun-18 09:30N 34°35' E 135°17'712.2
2018-Jun-18 08:58N 34°33' E 135°24'1 0.3
2018-Jun-18 05:06N 34°33' E 135°26'0 0.5
2018-Jun-18 05:00N 34°33' E 135°26'510.7
2018-Jun-18 04:30N 34°33' E 135°19'612.6
2018-Jun-18 04:00N 34°34' E 135°12'612.5
2018-Jun-18 03:30N 34°35' E 135°04'710.7
2018-Jun-18 02:49N 34°36' E 134°56'611.5
2018-Jun-18 02:16N 34°40' E 134°49'2 0.2
2018-Jun-17 11:54N 34°42' E 134°47'813.0
2018-Jun-17 11:18N 34°37' E 134°55'413.1
2018-Jun-17 10:58N 34°38' E 135°00'510.8
2018-Jun-17 10:31N 34°35' E 135°05'712.8
2018-Jun-17 10:00N 34°29' E 135°03'612.4
2018-Jun-17 09:31N 34°23' E 135°02'611.9
2018-Jun-17 09:01N 34°17' E 134°60'611.9
2018-Jun-17 08:31N 34°12' E 135°03'611.5
2018-Jun-17 08:00N 34°07' E 135°07'0 0.9
2018-Jun-17 07:30N 34°07' E 135°07'0 0.0
2018-Jun-17 04:16N 34°07' E 135°07'1 3.0
2018-Jun-17 04:01N 34°08' E 135°07'0 0.1
2018-Jun-17 03:30N 34°08' E 135°07'0 0.0
2018-Jun-17 03:00N 34°08' E 135°07'0 0.1
2018-Jun-17 02:30N 34°08' E 135°07'0 0.1
2018-Jun-17 02:00N 34°08' E 135°07'0 0.0
2018-Jun-17 01:30N 34°08' E 135°07'0 0.0
2018-Jun-17 01:00N 34°08' E 135°07'0 0.0
2018-Jun-17 00:30N 34°08' E 135°07'0 0.0
2018-Jun-17 00:00N 34°08' E 135°07'2 2.8
2018-Jun-16 23:29N 34°09' E 135°07'4 7.9
2018-Jun-16 23:00N 34°13' E 135°09'0 0.0
2018-Jun-16 22:16N 34°13' E 135°09'0 0.0
2018-Jun-16 21:58N 34°13' E 135°09'0 0.0
2018-Jun-16 21:28N 34°13' E 135°09'0 0.0
2018-Jun-16 20:58N 34°13' E 135°09'0 0.0
2018-Jun-16 20:28N 34°13' E 135°09'0 0.0
2018-Jun-16 19:46N 34°13' E 135°09'0 0.0
2018-Jun-16 19:28N 34°13' E 135°09'0 0.0
2018-Jun-16 18:58N 34°13' E 135°09'0 0.0
2018-Jun-16 18:22N 34°13' E 135°09'0 0.0
2018-Jun-16 17:52N 34°13' E 135°09'0 0.0
2018-Jun-16 17:28N 34°13' E 135°09'0 0.0
2018-Jun-16 16:04N 34°13' E 135°09'0 0.0
2018-Jun-16 15:58N 34°13' E 135°09'0 0.0
2018-Jun-16 15:22N 34°13' E 135°09'0 0.0
2018-Jun-16 14:58N 34°13' E 135°09'0 0.0
2018-Jun-16 14:28N 34°13' E 135°09'0 0.0
2018-Jun-16 13:58N 34°13' E 135°09'0 0.0
2018-Jun-16 12:58N 34°13' E 135°09'0 0.0
2018-Jun-16 12:16N 34°13' E 135°09'0 0.0
2018-Jun-16 11:40N 34°13' E 135°09'0 0.0
2018-Jun-16 11:04N 34°13' E 135°09'0 0.0
2018-Jun-16 02:34N 34°13' E 135°09'0 0.0
2018-Jun-16 02:10N 34°13' E 135°09'0 0.0
2018-Jun-16 00:46N 34°13' E 135°09'0 0.0
2018-Jun-16 00:22N 34°13' E 135°09'0 0.0
2018-Jun-15 23:58N 34°13' E 135°09'0 0.0
2018-Jun-15 23:22N 34°13' E 135°09'0 0.0
2018-Jun-15 22:56N 34°13' E 135°09'1 2.6
2018-Jun-15 22:30N 34°12' E 135°07'0 0.1
2018-Jun-15 21:58N 34°12' E 135°07'0 0.0
2018-Jun-15 21:28N 34°12' E 135°07'0 0.1
2018-Jun-15 20:58N 34°12' E 135°07'0 0.0
2018-Jun-15 20:28N 34°12' E 135°07'0 0.0
2018-Jun-15 19:58N 34°12' E 135°07'0 0.1
2018-Jun-15 19:28N 34°12' E 135°07'0 0.0
2018-Jun-15 18:58N 34°12' E 135°07'0 0.0
2018-Jun-15 18:28N 34°12' E 135°07'0 0.0
2018-Jun-15 17:58N 34°12' E 135°07'0 0.0
2018-Jun-15 17:28N 34°12' E 135°07'4 7.6
2018-Jun-15 17:00N 34°09' E 135°05'612.2
2018-Jun-15 16:30N 34°03' E 135°03'612.8
2018-Jun-15 16:00N 33°57' E 135°01'611.5
2018-Jun-15 15:29N 33°51' E 135°03'  

Dump ship's entire track history